createdAt,value
2023-02-09T00:02:22.967Z,-3.36
2023-02-09T00:05:28.063Z,-3.36
2023-02-09T00:08:33.336Z,-3.39
2023-02-09T00:12:03.191Z,-3.44
2023-02-09T00:15:09.663Z,-3.34
2023-02-09T00:18:13.345Z,-3.32
2023-02-09T00:21:18.509Z,-3.35
2023-02-09T00:24:22.596Z,-3.42
2023-02-09T00:27:26.374Z,-3.39
2023-02-09T00:30:30.114Z,-3.39
2023-02-09T00:33:33.810Z,-3.39
2023-02-09T00:36:38.895Z,-3.37
2023-02-09T00:39:42.611Z,-3.41
2023-02-09T00:42:46.263Z,-3.36
2023-02-09T00:45:50.202Z,-3.49
2023-02-09T00:48:53.928Z,-3.42
2023-02-09T00:51:59.256Z,-3.45
2023-02-09T00:55:03.005Z,-3.45
2023-02-09T00:58:06.680Z,-3.45
2023-02-09T01:01:13.934Z,-3.39
2023-02-09T01:04:17.709Z,-3.40
2023-02-09T01:07:22.820Z,-3.46
2023-02-09T01:10:26.901Z,-3.56
2023-02-09T01:13:30.619Z,-3.58
2023-02-09T01:16:34.961Z,-3.56
2023-02-09T01:19:38.746Z,-3.65
2023-02-09T01:22:44.155Z,-3.61
2023-02-09T01:25:47.777Z,-3.64
2023-02-09T01:28:53.536Z,-3.58
2023-02-09T01:31:57.399Z,-3.63
2023-02-09T01:35:01.177Z,-3.61
2023-02-09T01:38:06.314Z,-3.58
2023-02-09T01:41:10.092Z,-3.57
2023-02-09T01:45:07.553Z,-3.50
2023-02-09T01:48:11.937Z,-3.58
2023-02-09T01:51:16.293Z,-3.52
2023-02-09T01:54:27.181Z,-3.67
2023-02-09T01:57:37.378Z,-3.66
2023-02-09T02:00:41.109Z,-3.48
2023-02-09T02:03:46.294Z,-3.59
2023-02-09T02:06:50.341Z,-3.59
2023-02-09T02:09:55.740Z,-3.68
2023-02-09T02:12:59.879Z,-3.74
2023-02-09T02:16:16.793Z,-3.71
2023-02-09T02:20:10.015Z,-3.72
2023-02-09T02:23:28.806Z,-3.69
2023-02-09T02:27:05.477Z,-3.72
2023-02-09T02:30:54.178Z,-3.80
2023-02-09T02:34:11.506Z,-3.71
2023-02-09T02:37:38.680Z,-3.64
2023-02-09T02:40:54.853Z,-3.62
2023-02-09T02:44:14.795Z,-3.67
2023-02-09T02:47:24.057Z,-3.77
2023-02-09T02:50:33.183Z,-3.63
2023-02-09T02:53:42.099Z,-3.79
2023-02-09T02:56:52.249Z,-3.81
2023-02-09T03:00:03.309Z,-3.82
2023-02-09T03:03:15.425Z,-3.79
2023-02-09T03:06:20.686Z,-3.91
2023-02-09T03:09:24.808Z,-3.87
2023-02-09T03:12:52.769Z,-3.93
2023-02-09T03:16:16.752Z,-3.95
2023-02-09T03:19:34.357Z,-4.02
2023-02-09T03:22:43.880Z,-4.03
2023-02-09T03:25:55.417Z,-3.82
2023-02-09T03:29:01.652Z,-3.90
2023-02-09T03:32:06.334Z,-3.98
2023-02-09T03:35:14.435Z,-4.09
2023-02-09T03:38:19.611Z,-4.15
2023-02-09T03:41:23.412Z,-4.08
2023-02-09T03:44:30.060Z,-4.14
2023-02-09T03:47:33.803Z,-3.96
2023-02-09T03:50:38.437Z,-4.00
2023-02-09T03:53:43.802Z,-3.93
2023-02-09T03:56:47.530Z,-3.85
2023-02-09T03:59:51.280Z,-3.78
2023-02-09T04:02:55.002Z,-3.77
2023-02-09T04:05:58.854Z,-3.77
2023-02-09T04:09:05.826Z,-3.62
2023-02-09T04:12:09.627Z,-3.66
2023-02-09T04:15:13.331Z,-3.67
2023-02-09T04:18:17.027Z,-3.57
2023-02-09T04:21:20.814Z,-3.69
2023-02-09T04:24:26.260Z,-3.66
2023-02-09T04:27:30.548Z,-3.59
2023-02-09T04:30:34.519Z,-3.67
2023-02-09T04:33:38.236Z,-3.69
2023-02-09T04:36:41.976Z,-3.52
2023-02-09T04:39:47.014Z,-3.53
2023-02-09T04:42:50.806Z,-3.54
2023-02-09T04:45:55.436Z,-3.53
2023-02-09T04:48:59.236Z,-3.53
2023-02-09T04:52:02.973Z,-3.63
2023-02-09T04:55:08.742Z,-3.65
2023-02-09T04:58:32.184Z,-3.55
2023-02-09T05:01:35.949Z,-3.62
2023-02-09T05:04:39.652Z,-3.63
2023-02-09T05:07:43.377Z,-3.54
2023-02-09T05:10:48.454Z,-3.49
2023-02-09T05:13:52.286Z,-3.41
2023-02-09T05:16:55.954Z,-3.42
2023-02-09T05:19:59.756Z,-3.31
2023-02-09T05:23:03.702Z,-3.28
2023-02-09T05:26:09.020Z,-3.35
2023-02-09T05:29:12.732Z,-3.34
2023-02-09T05:32:16.596Z,-3.32
2023-02-09T05:35:20.497Z,-3.24
2023-02-09T05:38:25.024Z,-3.41
2023-02-09T05:41:47.593Z,-3.29
2023-02-09T05:44:52.727Z,-3.22
2023-02-09T05:47:56.617Z,-3.30
2023-02-09T05:51:00.398Z,-3.27
2023-02-09T05:54:04.201Z,-3.34
2023-02-09T05:57:12.540Z,-3.32
2023-02-09T06:00:17.778Z,-3.33
2023-02-09T06:03:21.600Z,-3.34
2023-02-09T06:06:25.255Z,-3.31
2023-02-09T06:09:29.388Z,-3.31
2023-02-09T06:12:34.513Z,-3.29
2023-02-09T06:15:38.425Z,-3.37
2023-02-09T06:18:42.146Z,-3.36
2023-02-09T06:21:46.404Z,-3.39
2023-02-09T06:24:50.145Z,-3.33
2023-02-09T06:27:55.271Z,-3.26
2023-02-09T06:30:59.128Z,-3.39
2023-02-09T06:34:03.297Z,-3.34
2023-02-09T06:37:06.964Z,-3.41
2023-02-09T06:40:11.739Z,-3.45
2023-02-09T06:43:17.181Z,-3.54
2023-02-09T06:46:20.913Z,-3.48
2023-02-09T06:49:26.660Z,-3.32
2023-02-09T06:52:30.555Z,-3.45
2023-02-09T06:55:35.266Z,-3.38
2023-02-09T06:58:42.068Z,-3.27
2023-02-09T07:01:46.125Z,-3.30
2023-02-09T07:04:49.821Z,-3.33
2023-02-09T07:07:53.740Z,-3.31
2023-02-09T07:10:57.468Z,-3.11
2023-02-09T07:14:02.722Z,-3.14
2023-02-09T07:17:06.685Z,-3.07
2023-02-09T07:20:13.417Z,-3.00
2023-02-09T07:23:17.153Z,-2.89
2023-02-09T07:26:20.901Z,-2.83
2023-02-09T07:29:26.183Z,-2.82
2023-02-09T07:32:29.965Z,-2.79
2023-02-09T07:35:33.774Z,-2.74
2023-02-09T07:38:38.293Z,-2.66
2023-02-09T07:41:42.419Z,-2.66
2023-02-09T07:44:47.455Z,-2.61
2023-02-09T07:47:51.296Z,-2.60
2023-02-09T07:50:55.010Z,-2.59
2023-02-09T07:54:00.897Z,-2.41
2023-02-09T07:57:04.811Z,-2.36
2023-02-09T08:00:12.415Z,-2.36
2023-02-09T08:03:18.511Z,-2.34
2023-02-09T08:06:41.555Z,-2.28
2023-02-09T08:09:47.163Z,-2.27
2023-02-09T08:13:00.699Z,-2.17
2023-02-09T08:16:11.438Z,-2.03
2023-02-09T08:19:20.781Z,-2.00
2023-02-09T08:22:29.277Z,-1.94
2023-02-09T08:25:33.828Z,-1.81
2023-02-09T08:28:44.284Z,-1.70
2023-02-09T08:31:49.912Z,-1.54
2023-02-09T08:34:53.681Z,-1.50
2023-02-09T08:38:02.614Z,-1.45
2023-02-09T08:41:08.385Z,-1.33
2023-02-09T08:44:12.173Z,-1.26
2023-02-09T08:47:17.846Z,-1.15
2023-02-09T08:50:21.810Z,-1.00
2023-02-09T08:53:25.780Z,-0.92
2023-02-09T08:56:29.578Z,-0.89
2023-02-09T08:59:34.171Z,-0.75
2023-02-09T09:02:39.416Z,-0.59
2023-02-09T09:05:43.227Z,-0.56
2023-02-09T09:08:46.968Z,-0.39
2023-02-09T09:11:50.795Z,-0.43
2023-02-09T09:14:54.697Z,-0.30
2023-02-09T09:17:59.884Z,-0.22
2023-02-09T09:21:03.578Z,-0.11
2023-02-09T09:24:07.486Z,-0.02
2023-02-09T09:27:13.061Z,0.10
2023-02-09T09:30:16.859Z,0.14
2023-02-09T09:33:22.083Z,0.00
2023-02-09T09:36:25.777Z,0.03
2023-02-09T09:39:29.752Z,0.11
2023-02-09T09:42:39.467Z,0.17
2023-02-09T09:45:43.477Z,0.33
2023-02-09T09:48:54.622Z,0.32
2023-02-09T09:52:03.553Z,0.40
2023-02-09T09:55:15.003Z,0.50
2023-02-09T09:58:21.234Z,0.63
2023-02-09T10:01:28.779Z,0.68
2023-02-09T10:04:34.041Z,0.76
2023-02-09T10:07:41.419Z,0.84
2023-02-09T10:10:54.869Z,0.97
2023-02-09T10:13:59.445Z,0.87
2023-02-09T10:17:03.531Z,1.07
2023-02-09T10:20:11.170Z,1.13
2023-02-09T10:23:26.039Z,1.11
2023-02-09T10:26:32.228Z,1.06
2023-02-09T10:29:37.179Z,1.15
2023-02-09T10:32:45.227Z,1.16
2023-02-09T10:35:54.262Z,1.30
2023-02-09T10:39:16.732Z,1.31
2023-02-09T10:42:26.380Z,1.35
2023-02-09T10:45:39.345Z,1.47
2023-02-09T10:48:46.074Z,1.60
2023-02-09T10:51:52.895Z,1.52
2023-02-09T10:55:01.581Z,1.63
2023-02-09T10:58:26.541Z,1.61
2023-02-09T11:01:35.561Z,1.61
2023-02-09T11:04:42.121Z,1.75
2023-02-09T11:07:52.812Z,1.59
2023-02-09T11:11:04.991Z,1.77
2023-02-09T11:14:15.163Z,1.84
2023-02-09T11:17:28.238Z,1.92
2023-02-09T11:20:37.553Z,2.06
2023-02-09T11:23:54.604Z,2.20
2023-02-09T11:27:07.963Z,2.19
2023-02-09T11:30:41.729Z,2.03
2023-02-09T11:34:00.087Z,2.22
2023-02-09T11:37:20.587Z,2.15
2023-02-09T11:40:34.294Z,2.21
2023-02-09T11:43:43.296Z,2.24
2023-02-09T11:46:49.385Z,2.25
2023-02-09T11:49:57.907Z,2.10
2023-02-09T11:53:07.349Z,2.10
2023-02-09T11:56:16.092Z,2.17
2023-02-09T11:59:30.509Z,2.33
2023-02-09T12:02:52.166Z,2.48
2023-02-09T12:05:57.441Z,2.36
2023-02-09T12:09:17.440Z,2.53
2023-02-09T12:12:31.063Z,2.47
2023-02-09T12:15:45.394Z,2.66
2023-02-09T12:18:49.372Z,2.72
2023-02-09T12:21:53.185Z,2.78
2023-02-09T12:25:34.174Z,2.86
2023-02-09T12:28:52.581Z,2.83
2023-02-09T12:32:47.573Z,2.79
2023-02-09T12:36:03.467Z,2.66
2023-02-09T12:39:25.345Z,2.67
2023-02-09T12:42:39.744Z,2.76
2023-02-09T12:45:46.509Z,2.63
2023-02-09T12:49:20.077Z,2.61
2023-02-09T12:52:24.001Z,2.67
2023-02-09T12:55:28.455Z,2.58
2023-02-09T12:58:54.456Z,2.70
2023-02-09T13:02:25.469Z,2.64
2023-02-09T13:05:37.245Z,2.58
2023-02-09T13:08:53.575Z,2.60
2023-02-09T13:12:12.175Z,2.68
2023-02-09T13:15:46.938Z,2.77
2023-02-09T13:19:03.798Z,2.62
2023-02-09T13:22:31.263Z,2.68
2023-02-09T13:25:39.761Z,2.69
2023-02-09T13:28:43.436Z,2.62
2023-02-09T13:31:58.205Z,2.55
2023-02-09T13:35:14.309Z,2.53
2023-02-09T13:38:21.879Z,2.58
2023-02-09T13:41:34.501Z,2.54
2023-02-09T13:44:38.234Z,2.64
2023-02-09T13:47:45.136Z,2.53
2023-02-09T13:50:51.668Z,2.58
2023-02-09T13:54:01.077Z,2.54
2023-02-09T13:57:10.565Z,2.62
2023-02-09T14:00:26.964Z,2.45
2023-02-09T14:03:39.488Z,2.48
2023-02-09T14:06:54.590Z,2.47
2023-02-09T14:10:04.209Z,2.40
2023-02-09T14:13:19.618Z,2.44
2023-02-09T14:16:28.140Z,2.47
2023-02-09T14:19:33.620Z,2.43
2023-02-09T14:22:42.681Z,2.47
2023-02-09T14:25:49.171Z,2.50
2023-02-09T14:29:05.130Z,2.47
2023-02-09T14:32:33.053Z,2.48
2023-02-09T14:35:42.642Z,2.42
2023-02-09T14:38:51.713Z,2.43
2023-02-09T14:42:18.056Z,2.38
2023-02-09T14:45:36.048Z,2.34
2023-02-09T14:48:39.930Z,2.27
2023-02-09T14:51:44.470Z,2.28
2023-02-09T14:54:51.796Z,2.27
2023-02-09T14:57:55.748Z,2.26
2023-02-09T15:01:03.126Z,2.25
2023-02-09T15:04:07.121Z,2.26
2023-02-09T15:07:16.598Z,2.23
2023-02-09T15:10:28.258Z,2.25
2023-02-09T15:13:33.167Z,2.19
2023-02-09T15:16:36.935Z,2.18
2023-02-09T15:19:40.727Z,2.14
2023-02-09T15:22:44.879Z,2.15
2023-02-09T15:25:50.092Z,2.18
2023-02-09T15:28:53.975Z,2.20
2023-02-09T15:31:57.687Z,2.15
2023-02-09T15:35:03.160Z,2.15
2023-02-09T15:38:07.251Z,2.13
2023-02-09T15:41:29.986Z,2.09
2023-02-09T15:44:51.108Z,2.08
2023-02-09T15:48:02.476Z,2.07
2023-02-09T15:51:07.397Z,2.08
2023-02-09T15:54:18.809Z,2.06
2023-02-09T15:57:26.385Z,2.06
2023-02-09T16:00:32.248Z,2.02
2023-02-09T16:03:36.123Z,2.00
2023-02-09T16:06:41.543Z,2.03
2023-02-09T16:09:45.403Z,1.98
2023-02-09T16:12:50.899Z,1.97
2023-02-09T16:16:00.315Z,1.96
2023-02-09T16:19:11.995Z,2.01
2023-02-09T16:22:15.864Z,2.00
2023-02-09T16:25:23.951Z,1.98
2023-02-09T16:28:29.115Z,2.00
2023-02-09T16:31:33.567Z,1.95
2023-02-09T16:34:37.493Z,2.01
2023-02-09T16:37:42.175Z,1.97
2023-02-09T16:40:46.812Z,1.98
2023-02-09T16:43:52.084Z,1.99
2023-02-09T16:47:00.216Z,1.96
2023-02-09T16:50:20.315Z,1.94
2023-02-09T16:53:33.864Z,1.94
2023-02-09T16:56:52.630Z,1.96
2023-02-09T16:59:59.258Z,2.00
2023-02-09T17:03:14.103Z,1.96
2023-02-09T17:06:22.221Z,2.00
2023-02-09T17:09:25.888Z,2.02
2023-02-09T17:12:30.154Z,1.99
2023-02-09T17:15:43.642Z,2.02
2023-02-09T17:18:51.615Z,2.02
2023-02-09T17:21:55.897Z,1.99
2023-02-09T17:24:59.602Z,1.99
2023-02-09T17:28:03.456Z,1.96
2023-02-09T17:31:20.766Z,2.00
2023-02-09T17:34:27.301Z,2.01
2023-02-09T17:37:31.121Z,1.99
2023-02-09T17:40:37.980Z,2.00
2023-02-09T17:43:41.718Z,1.99
2023-02-09T17:46:47.471Z,1.99
2023-02-09T17:49:51.694Z,2.04
2023-02-09T17:52:56.121Z,2.01
2023-02-09T17:56:00.129Z,2.02
2023-02-09T17:59:08.264Z,2.02
2023-02-09T18:02:19.952Z,1.99
2023-02-09T18:05:27.887Z,1.95
2023-02-09T18:08:31.617Z,1.95
2023-02-09T18:11:57.880Z,1.91
2023-02-09T18:15:01.521Z,1.93
2023-02-09T18:18:06.957Z,1.91
2023-02-09T18:21:15.664Z,1.87
2023-02-09T18:24:21.910Z,1.88
2023-02-09T18:27:25.729Z,1.92
2023-02-09T18:30:32.690Z,1.94
2023-02-09T18:33:38.630Z,1.91
2023-02-09T18:36:42.570Z,1.94
2023-02-09T18:39:47.823Z,1.96
2023-02-09T18:42:51.603Z,1.97
2023-02-09T18:45:55.445Z,1.98
2023-02-09T18:49:03.381Z,1.99
2023-02-09T18:52:08.858Z,1.99
2023-02-09T18:55:12.627Z,1.98
2023-02-09T18:58:16.495Z,2.00
2023-02-09T19:01:23.143Z,1.98
2023-02-09T19:04:28.540Z,2.02
2023-02-09T19:07:32.820Z,1.96
2023-02-09T19:10:36.902Z,1.94
2023-02-09T19:13:40.662Z,1.92
2023-02-09T19:16:44.467Z,1.93
2023-02-09T19:19:50.346Z,1.87
2023-02-09T19:22:55.622Z,1.83
2023-02-09T19:26:04.466Z,1.81
2023-02-09T19:29:08.228Z,1.84
2023-02-09T19:32:14.600Z,1.86
2023-02-09T19:35:23.026Z,1.86
2023-02-09T19:38:27.870Z,1.88
2023-02-09T19:41:31.658Z,1.85
2023-02-09T19:44:36.621Z,1.85
2023-02-09T19:47:40.712Z,1.85
2023-02-09T19:50:45.975Z,1.76
2023-02-09T19:53:50.408Z,1.69
2023-02-09T19:56:54.362Z,1.60
2023-02-09T19:59:58.300Z,1.47
2023-02-09T20:03:02.394Z,1.39
2023-02-09T20:06:11.332Z,1.36
2023-02-09T20:09:16.605Z,1.29
2023-02-09T20:12:22.848Z,1.32
2023-02-09T20:15:27.455Z,1.21
2023-02-09T20:18:31.502Z,1.18
2023-02-09T20:21:36.918Z,1.21
2023-02-09T20:24:40.789Z,1.23
2023-02-09T20:27:44.506Z,1.20
2023-02-09T20:30:48.977Z,1.19
2023-02-09T20:33:53.159Z,1.17
2023-02-09T20:36:58.901Z,1.15
2023-02-09T20:40:05.356Z,1.14
2023-02-09T20:43:26.444Z,1.17
2023-02-09T20:46:50.104Z,1.19
2023-02-09T20:49:56.916Z,1.17
2023-02-09T20:53:02.356Z,1.29
2023-02-09T20:56:06.842Z,1.21
2023-02-09T20:59:12.567Z,1.20
2023-02-09T21:02:17.019Z,1.20
2023-02-09T21:05:20.989Z,1.26
2023-02-09T21:08:26.197Z,1.31
2023-02-09T21:11:30.075Z,1.27
2023-02-09T21:14:42.220Z,1.24
2023-02-09T21:17:48.574Z,1.17
2023-02-09T21:20:53.033Z,1.10
2023-02-09T21:23:59.349Z,1.07
2023-02-09T21:27:02.974Z,1.02
2023-02-09T21:30:07.715Z,0.93
2023-02-09T21:33:11.909Z,0.91
2023-02-09T21:36:15.672Z,0.92
2023-02-09T21:39:20.754Z,1.01
2023-02-09T21:42:27.352Z,0.96
2023-02-09T21:45:39.818Z,0.96
2023-02-09T21:48:43.477Z,0.97
2023-02-09T21:51:47.226Z,1.02
2023-02-09T21:54:52.509Z,1.09
2023-02-09T21:57:56.223Z,1.12
2023-02-09T22:01:00.774Z,1.15
2023-02-09T22:04:05.350Z,1.18
2023-02-09T22:07:09.118Z,1.23
2023-02-09T22:10:14.290Z,1.31
2023-02-09T22:13:18.003Z,1.37
2023-02-09T22:16:23.841Z,1.32
2023-02-09T22:19:27.619Z,1.34
2023-02-09T22:22:31.331Z,1.32
2023-02-09T22:25:36.820Z,1.32
2023-02-09T22:28:40.744Z,1.41
2023-02-09T22:31:45.010Z,1.44
2023-02-09T22:34:48.720Z,1.41
2023-02-09T22:37:52.319Z,1.45
2023-02-09T22:40:57.426Z,1.48
2023-02-09T22:44:04.524Z,1.58
2023-02-09T22:47:08.303Z,1.63
2023-02-09T22:50:12.509Z,1.69
2023-02-09T22:53:16.325Z,1.70
2023-02-09T22:56:21.896Z,1.83
2023-02-09T22:59:25.766Z,1.82
2023-02-09T23:02:29.453Z,1.88
2023-02-09T23:05:33.227Z,1.91
2023-02-09T23:08:37.450Z,1.94
2023-02-09T23:11:44.284Z,2.03
2023-02-09T23:14:48.230Z,2.08
2023-02-09T23:17:52.148Z,2.10
2023-02-09T23:20:55.824Z,2.09
2023-02-09T23:24:00.014Z,2.06
2023-02-09T23:27:05.207Z,2.06
2023-02-09T23:30:10.405Z,2.03
2023-02-09T23:33:14.132Z,2.00
2023-02-09T23:36:22.184Z,2.00
2023-02-09T23:39:26.951Z,1.96
2023-02-09T23:42:32.030Z,1.96
2023-02-09T23:45:43.644Z,1.91
2023-02-09T23:48:47.961Z,1.86
2023-02-09T23:51:51.789Z,1.75
2023-02-09T23:54:55.609Z,1.69
2023-02-09T23:58:00.672Z,1.65
